createdAt,value
2023-03-30T00:01:18.141Z,100427.44
2023-03-30T00:03:47.310Z,100431.00
2023-03-30T00:06:22.050Z,100431.94
2023-03-30T00:08:53.587Z,100425.78
2023-03-30T00:11:23.390Z,100424.03
2023-03-30T00:13:51.598Z,100424.16
2023-03-30T00:16:20.099Z,100430.41
2023-03-30T00:18:47.527Z,100424.31
2023-03-30T00:21:18.377Z,100417.34
2023-03-30T00:23:49.116Z,100420.91
2023-03-30T00:26:17.628Z,100410.34
2023-03-30T00:28:46.184Z,100404.25
2023-03-30T00:31:13.461Z,100406.97
2023-03-30T00:33:46.595Z,100395.59
2023-03-30T00:36:16.189Z,100412.34
2023-03-30T00:38:44.123Z,100407.09
2023-03-30T00:41:11.510Z,100400.91
2023-03-30T00:44:04.344Z,100401.75
2023-03-30T00:46:32.206Z,100390.28
2023-03-30T00:49:10.647Z,100387.53
2023-03-30T00:51:41.716Z,100390.09
2023-03-30T00:54:16.713Z,100370.66
2023-03-30T00:56:43.969Z,100364.44
2023-03-30T00:59:11.570Z,100358.25
2023-03-30T01:01:41.993Z,100353.78
2023-03-30T01:04:29.788Z,100359.00
2023-03-30T01:06:58.051Z,100357.19
2023-03-30T01:09:25.688Z,100350.09
2023-03-30T01:11:52.922Z,100352.66
2023-03-30T01:14:20.255Z,100355.19
2023-03-30T01:17:25.702Z,100349.69
2023-03-30T01:20:29.707Z,100354.81
2023-03-30T01:23:47.091Z,100358.19
2023-03-30T01:26:39.584Z,100369.59
2023-03-30T01:29:38.249Z,100358.06
2023-03-30T01:32:37.155Z,100358.88
2023-03-30T01:35:42.720Z,100364.19
2023-03-30T01:38:52.690Z,100363.31
2023-03-30T01:41:49.391Z,100351.97
2023-03-30T01:44:55.051Z,100352.19
2023-03-30T01:47:51.744Z,100340.91
2023-03-30T01:50:43.767Z,100342.00
2023-03-30T01:53:18.364Z,100344.81
2023-03-30T01:56:30.374Z,100342.34
2023-03-30T01:59:29.653Z,100346.00
2023-03-30T02:02:02.665Z,100356.72
2023-03-30T02:04:34.124Z,100356.78
2023-03-30T02:07:15.632Z,100359.44
2023-03-30T02:09:46.602Z,100354.16
2023-03-30T02:12:14.166Z,100355.97
2023-03-30T02:14:42.585Z,100350.63
2023-03-30T02:17:21.524Z,100345.31
2023-03-30T02:19:49.314Z,100341.81
2023-03-30T02:22:19.035Z,100339.16
2023-03-30T02:24:49.526Z,100343.56
2023-03-30T02:27:17.250Z,100334.66
2023-03-30T02:29:46.088Z,100336.41
2023-03-30T02:32:27.849Z,100336.31
2023-03-30T02:35:19.386Z,100339.72
2023-03-30T02:38:28.185Z,100343.13
2023-03-30T02:41:16.740Z,100347.47
2023-03-30T02:44:26.056Z,100342.94
2023-03-30T02:47:17.849Z,100342.00
2023-03-30T02:50:27.159Z,100337.50
2023-03-30T02:53:10.566Z,100334.84
2023-03-30T02:56:03.874Z,100335.69
2023-03-30T02:59:07.719Z,100333.00
2023-03-30T03:01:46.069Z,100326.81
2023-03-30T03:04:15.697Z,100333.81
2023-03-30T03:06:43.437Z,100323.25
2023-03-30T03:09:10.604Z,100329.38
2023-03-30T03:11:37.684Z,100331.97
2023-03-30T03:14:05.169Z,100337.22
2023-03-30T03:16:32.414Z,100339.81
2023-03-30T03:18:59.447Z,100330.97
2023-03-30T03:21:26.376Z,100326.56
2023-03-30T03:23:53.446Z,100320.31
2023-03-30T03:26:20.716Z,100332.59
2023-03-30T03:28:47.664Z,100335.06
2023-03-30T03:31:14.665Z,100319.91
2023-03-30T03:33:41.724Z,100320.72
2023-03-30T03:36:11.127Z,100315.34
2023-03-30T03:38:38.747Z,100326.63
2023-03-30T03:41:06.909Z,100320.34
2023-03-30T03:43:34.040Z,100315.91
2023-03-30T03:46:01.092Z,100325.59
2023-03-30T03:48:28.065Z,100318.47
2023-03-30T03:50:58.351Z,100305.19
2023-03-30T03:53:28.350Z,100300.81
2023-03-30T03:55:56.052Z,100313.09
2023-03-30T03:58:24.203Z,100309.53
2023-03-30T04:00:52.033Z,100302.34
2023-03-30T04:03:19.215Z,100303.19
2023-03-30T04:05:46.256Z,100304.97
2023-03-30T04:08:13.467Z,100303.19
2023-03-30T04:10:41.793Z,100284.75
2023-03-30T04:13:08.830Z,100291.78
2023-03-30T04:15:36.279Z,100308.66
2023-03-30T04:18:05.702Z,100303.41
2023-03-30T04:20:33.557Z,100300.94
2023-03-30T04:23:03.692Z,100298.47
2023-03-30T04:25:31.090Z,100297.69
2023-03-30T04:27:58.174Z,100287.94
2023-03-30T04:30:25.284Z,100284.63
2023-03-30T04:33:03.063Z,100275.88
2023-03-30T04:35:32.766Z,100296.16
2023-03-30T04:38:02.174Z,100283.88
2023-03-30T04:40:30.387Z,100278.59
2023-03-30T04:43:03.614Z,100266.28
2023-03-30T04:45:31.641Z,100274.19
2023-03-30T04:47:58.896Z,100275.91
2023-03-30T04:50:26.243Z,100268.81
2023-03-30T04:52:53.551Z,100272.28
2023-03-30T04:55:20.636Z,100280.16
2023-03-30T04:57:47.751Z,100271.38
2023-03-30T05:00:15.902Z,100279.38
2023-03-30T05:02:43.079Z,100267.84
2023-03-30T05:05:10.509Z,100264.38
2023-03-30T05:07:37.680Z,100262.56
2023-03-30T05:10:05.417Z,100273.13
2023-03-30T05:12:32.457Z,100273.09
2023-03-30T05:14:59.513Z,100284.50
2023-03-30T05:17:26.788Z,100285.31
2023-03-30T05:19:54.700Z,100292.31
2023-03-30T05:22:21.808Z,100286.94
2023-03-30T05:24:49.677Z,100291.22
2023-03-30T05:27:16.653Z,100294.69
2023-03-30T05:29:44.845Z,100298.25
2023-03-30T05:32:12.094Z,100280.44
2023-03-30T05:34:39.140Z,100301.63
2023-03-30T05:37:06.229Z,100297.97
2023-03-30T05:39:33.244Z,100310.25
2023-03-30T05:42:01.652Z,100314.69
2023-03-30T05:44:28.821Z,100315.56
2023-03-30T05:46:55.979Z,100311.22
2023-03-30T05:49:23.165Z,100305.09
2023-03-30T05:51:51.359Z,100300.84
2023-03-30T05:54:18.557Z,100319.47
2023-03-30T05:56:45.746Z,100336.44
2023-03-30T05:59:13.124Z,100341.03
2023-03-30T06:01:40.290Z,100331.53
2023-03-30T06:04:08.601Z,100331.78
2023-03-30T06:06:35.838Z,100359.25
2023-03-30T06:09:04.480Z,100361.19
2023-03-30T06:11:32.122Z,100368.44
2023-03-30T06:13:59.525Z,100376.56
2023-03-30T06:16:26.694Z,100382.88
2023-03-30T06:18:53.777Z,100385.75
2023-03-30T06:21:20.922Z,100380.69
2023-03-30T06:23:49.073Z,100389.69
2023-03-30T06:26:16.456Z,100406.56
2023-03-30T06:28:43.591Z,100398.09
2023-03-30T06:31:12.115Z,100391.13
2023-03-30T06:33:41.751Z,100396.50
2023-03-30T06:36:14.913Z,100400.00
2023-03-30T06:38:45.452Z,100392.94
2023-03-30T06:41:12.942Z,100399.00
2023-03-30T06:43:41.221Z,100390.09
2023-03-30T06:46:09.463Z,100399.66
2023-03-30T06:48:36.831Z,100396.16
2023-03-30T06:51:04.430Z,100387.25
2023-03-30T06:53:31.803Z,100388.97
2023-03-30T06:55:59.524Z,100388.03
2023-03-30T06:58:27.888Z,100394.94
2023-03-30T07:00:55.363Z,100393.81
2023-03-30T07:03:23.107Z,100398.31
2023-03-30T07:05:52.512Z,100395.56
2023-03-30T07:08:20.458Z,100395.47
2023-03-30T07:10:48.549Z,100398.09
2023-03-30T07:13:16.992Z,100396.25
2023-03-30T07:15:46.038Z,100399.75
2023-03-30T07:18:13.999Z,100397.06
2023-03-30T07:20:41.145Z,100406.59
2023-03-30T07:23:08.946Z,100407.34
2023-03-30T07:25:36.110Z,100408.16
2023-03-30T07:28:06.264Z,100406.25
2023-03-30T07:30:34.715Z,100414.22
2023-03-30T07:33:02.031Z,100419.44
2023-03-30T07:35:29.283Z,100414.94
2023-03-30T07:38:02.718Z,100416.53
2023-03-30T07:40:30.674Z,100416.47
2023-03-30T07:42:57.767Z,100423.22
2023-03-30T07:45:24.938Z,100426.53
2023-03-30T07:47:51.976Z,100423.69
2023-03-30T07:50:19.134Z,100434.97
2023-03-30T07:52:46.171Z,100430.38
2023-03-30T07:55:13.801Z,100427.50
2023-03-30T07:57:41.100Z,100427.91
2023-03-30T08:00:12.915Z,100432.69
2023-03-30T08:02:40.593Z,100435.84
2023-03-30T08:05:08.825Z,100434.81
2023-03-30T08:07:37.153Z,100445.53
2023-03-30T08:10:05.236Z,100458.59
2023-03-30T08:12:32.584Z,100455.03
2023-03-30T08:15:00.841Z,100457.59
2023-03-30T08:17:28.190Z,100456.50
2023-03-30T08:19:56.395Z,100467.53
2023-03-30T08:22:23.592Z,100455.66
2023-03-30T08:24:50.702Z,100459.94
2023-03-30T08:27:17.765Z,100466.69
2023-03-30T08:29:44.920Z,100463.97
2023-03-30T08:32:11.974Z,100461.69
2023-03-30T08:34:39.356Z,100475.75
2023-03-30T08:37:06.757Z,100472.13
2023-03-30T08:39:34.103Z,100473.50
2023-03-30T08:42:59.130Z,100469.13
2023-03-30T08:45:34.382Z,100468.56
2023-03-30T08:48:02.269Z,100470.03
2023-03-30T08:50:32.943Z,100481.22
2023-03-30T08:53:00.439Z,100476.59
2023-03-30T08:55:40.434Z,100475.09
2023-03-30T08:58:53.659Z,100471.97
2023-03-30T09:01:44.329Z,100476.97
2023-03-30T09:04:47.354Z,100474.22
2023-03-30T09:07:24.161Z,100467.94
2023-03-30T09:09:52.546Z,100486.78
2023-03-30T09:12:45.810Z,100495.31
2023-03-30T09:15:59.607Z,100480.22
2023-03-30T09:18:33.080Z,100505.19
2023-03-30T09:21:06.321Z,100499.75
2023-03-30T09:23:34.458Z,100512.69
2023-03-30T09:26:49.630Z,100519.13
2023-03-30T09:29:31.093Z,100515.38
2023-03-30T09:32:06.029Z,100527.34
2023-03-30T09:34:54.424Z,100530.16
2023-03-30T09:37:23.004Z,100535.00
2023-03-30T09:39:51.125Z,100535.53
2023-03-30T09:42:47.670Z,100531.66
2023-03-30T09:45:21.637Z,100542.94
2023-03-30T09:47:48.954Z,100535.47
2023-03-30T09:50:24.948Z,100533.94
2023-03-30T09:53:01.902Z,100538.72
2023-03-30T09:55:35.880Z,100542.78
2023-03-30T09:58:21.091Z,100540.50
2023-03-30T10:01:07.107Z,100559.03
2023-03-30T10:03:36.595Z,100548.16
2023-03-30T10:06:09.614Z,100559.91
2023-03-30T10:08:55.373Z,100558.13
2023-03-30T10:11:49.314Z,100557.94
2023-03-30T10:14:36.037Z,100558.13
2023-03-30T10:17:05.440Z,100553.66
2023-03-30T10:19:37.992Z,100555.25
2023-03-30T10:22:22.703Z,100558.28
2023-03-30T10:24:56.886Z,100556.53
2023-03-30T10:27:36.117Z,100552.13
2023-03-30T10:30:12.505Z,100562.25
2023-03-30T10:32:44.478Z,100566.03
2023-03-30T10:35:11.643Z,100564.72
2023-03-30T10:37:43.198Z,100552.53
2023-03-30T10:40:32.548Z,100554.56
2023-03-30T10:43:01.786Z,100559.25
2023-03-30T10:45:39.522Z,100562.56
2023-03-30T10:48:38.012Z,100566.47
2023-03-30T10:51:43.137Z,100562.72
2023-03-30T10:54:47.275Z,100557.22
2023-03-30T10:57:18.639Z,100567.31
2023-03-30T11:00:10.128Z,100570.84
2023-03-30T11:03:20.034Z,100558.53
2023-03-30T11:05:52.977Z,100566.81
2023-03-30T11:08:35.817Z,100563.81
2023-03-30T11:11:05.547Z,100567.69
2023-03-30T11:13:42.624Z,100558.88
2023-03-30T11:16:17.873Z,100549.78
2023-03-30T11:19:05.450Z,100550.94
2023-03-30T11:22:16.340Z,100582.44
2023-03-30T11:24:46.570Z,100589.78
2023-03-30T11:27:51.821Z,100575.66
2023-03-30T11:30:29.945Z,100575.28
2023-03-30T11:33:24.226Z,100565.50
2023-03-30T11:36:11.288Z,100570.31
2023-03-30T11:38:43.234Z,100562.25
2023-03-30T11:41:15.945Z,100572.31
2023-03-30T11:43:43.738Z,100560.44
2023-03-30T11:46:24.814Z,100554.00
2023-03-30T11:49:34.189Z,100568.69
2023-03-30T11:52:41.901Z,100570.88
2023-03-30T11:55:53.360Z,100570.81
2023-03-30T11:58:35.060Z,100565.56
2023-03-30T12:01:43.972Z,100580.44
2023-03-30T12:04:16.970Z,100577.53
2023-03-30T12:07:02.360Z,100576.09
2023-03-30T12:09:57.456Z,100584.56
2023-03-30T12:12:39.132Z,100592.47
2023-03-30T12:15:14.946Z,100586.94
2023-03-30T12:17:51.151Z,100585.94
2023-03-30T12:20:47.973Z,100585.94
2023-03-30T12:23:41.913Z,100574.59
2023-03-30T12:26:25.395Z,100567.91
2023-03-30T12:31:56.071Z,100592.00
2023-03-30T12:34:28.626Z,100579.63
2023-03-30T12:37:05.382Z,100580.25
2023-03-30T12:39:51.409Z,100577.81
2023-03-30T12:42:34.299Z,100576.69
2023-03-30T12:45:23.825Z,100584.97
2023-03-30T12:48:09.064Z,100568.25
2023-03-30T12:51:22.734Z,100573.69
2023-03-30T12:54:24.801Z,100569.94
2023-03-30T12:57:11.135Z,100560.50
2023-03-30T13:00:15.875Z,100561.63
2023-03-30T13:03:28.587Z,100559.44
2023-03-30T13:05:59.935Z,100580.03
2023-03-30T13:08:41.659Z,100578.34
2023-03-30T13:11:20.195Z,100586.63
2023-03-30T13:13:59.093Z,100580.59
2023-03-30T13:16:51.298Z,100570.13
2023-03-30T13:19:32.254Z,100553.41
2023-03-30T13:22:28.646Z,100546.06
2023-03-30T13:25:20.299Z,100541.78
2023-03-30T13:27:51.289Z,100539.47
2023-03-30T13:30:18.991Z,100538.53
2023-03-30T13:33:22.554Z,100535.59
2023-03-30T13:36:06.654Z,100525.47
2023-03-30T13:38:51.506Z,100525.06
2023-03-30T13:41:18.575Z,100524.38
2023-03-30T13:44:17.678Z,100509.91
2023-03-30T13:46:50.690Z,100511.44
2023-03-30T13:49:51.171Z,100514.72
2023-03-30T13:52:31.116Z,100503.44
2023-03-30T13:54:59.370Z,100508.59
2023-03-30T13:57:39.937Z,100507.28
2023-03-30T14:00:45.166Z,100533.44
2023-03-30T14:03:44.442Z,100576.75
2023-03-30T14:06:14.849Z,100576.72
2023-03-30T14:08:47.741Z,100575.16
2023-03-30T14:11:19.973Z,100584.19
2023-03-30T14:13:52.477Z,100573.94
2023-03-30T14:16:38.753Z,100564.78
2023-03-30T14:19:25.916Z,100569.25
2023-03-30T14:22:05.220Z,100553.25
2023-03-30T14:24:34.232Z,100548.56
2023-03-30T14:27:15.499Z,100539.72
2023-03-30T14:29:48.194Z,100549.56
2023-03-30T14:32:19.274Z,100549.03
2023-03-30T14:34:49.458Z,100531.66
2023-03-30T14:37:19.677Z,100545.41
2023-03-30T14:39:53.689Z,100536.91
2023-03-30T14:42:27.716Z,100537.72
2023-03-30T14:44:57.064Z,100535.81
2023-03-30T14:47:27.201Z,100532.41
2023-03-30T14:50:02.410Z,100528.56
2023-03-30T14:52:40.744Z,100525.69
2023-03-30T14:55:18.953Z,100522.22
2023-03-30T14:57:48.878Z,100512.63
2023-03-30T15:00:22.830Z,100516.41
2023-03-30T15:02:59.924Z,100525.41
2023-03-30T15:05:37.425Z,100519.13
2023-03-30T15:08:06.147Z,100534.72
2023-03-30T15:10:43.438Z,100528.25
2023-03-30T15:13:29.018Z,100524.59
2023-03-30T15:15:58.892Z,100520.84
2023-03-30T15:18:29.192Z,100517.72
2023-03-30T15:20:57.826Z,100518.50
2023-03-30T15:23:31.695Z,100521.81
2023-03-30T15:26:01.567Z,100509.22
2023-03-30T15:28:35.177Z,100504.03
2023-03-30T15:31:02.718Z,100523.81
2023-03-30T15:33:38.899Z,100523.09
2023-03-30T15:36:13.348Z,100523.94
2023-03-30T15:38:49.823Z,100521.28
2023-03-30T15:41:20.861Z,100520.88
2023-03-30T15:44:11.144Z,100504.41
2023-03-30T15:46:40.305Z,100517.72
2023-03-30T15:49:09.687Z,100524.13
2023-03-30T15:51:43.791Z,100517.72
2023-03-30T15:54:21.433Z,100534.13
2023-03-30T15:57:08.404Z,100530.06
2023-03-30T15:59:46.808Z,100522.00
2023-03-30T16:02:17.019Z,100521.31
2023-03-30T16:04:44.299Z,100517.72
2023-03-30T16:07:25.749Z,100513.72
2023-03-30T16:09:53.682Z,100515.06
2023-03-30T16:12:26.067Z,100506.50
2023-03-30T16:14:54.535Z,100520.53
2023-03-30T16:17:21.738Z,100530.19
2023-03-30T16:19:49.098Z,100532.41
2023-03-30T16:22:16.777Z,100530.69
2023-03-30T16:24:44.002Z,100536.69
2023-03-30T16:27:13.040Z,100534.69
2023-03-30T16:29:40.525Z,100531.75
2023-03-30T16:32:08.032Z,100536.00
2023-03-30T16:34:35.244Z,100530.09
2023-03-30T16:37:02.519Z,100532.00
2023-03-30T16:39:30.654Z,100531.47
2023-03-30T16:41:57.944Z,100524.16
2023-03-30T16:44:26.053Z,100530.75
2023-03-30T16:46:53.229Z,100527.66
2023-03-30T16:49:26.203Z,100519.50
2023-03-30T16:51:57.539Z,100523.38
2023-03-30T16:54:32.152Z,100527.13
2023-03-30T16:57:03.544Z,100522.03
2023-03-30T16:59:32.341Z,100518.78
2023-03-30T17:02:00.453Z,100511.28
2023-03-30T17:04:28.175Z,100515.19
2023-03-30T17:06:55.642Z,100513.75
2023-03-30T17:09:23.366Z,100514.78
2023-03-30T17:11:51.007Z,100528.19
2023-03-30T17:14:20.543Z,100526.56
2023-03-30T17:16:47.608Z,100523.94
2023-03-30T17:19:15.051Z,100516.72
2023-03-30T17:21:46.009Z,100515.41
2023-03-30T17:24:15.319Z,100506.66
2023-03-30T17:26:42.902Z,100514.81
2023-03-30T17:29:10.842Z,100524.81
2023-03-30T17:31:45.713Z,100512.75
2023-03-30T17:34:13.732Z,100514.78
2023-03-30T17:36:40.759Z,100521.03
2023-03-30T17:39:10.348Z,100520.97
2023-03-30T17:41:38.301Z,100514.84
2023-03-30T17:44:05.566Z,100516.72
2023-03-30T17:46:32.947Z,100518.53
2023-03-30T17:49:00.910Z,100523.13
2023-03-30T17:51:27.920Z,100522.34
2023-03-30T17:53:55.209Z,100530.41
2023-03-30T17:56:22.386Z,100522.63
2023-03-30T17:58:49.661Z,100528.94
2023-03-30T18:01:16.906Z,100516.72
2023-03-30T18:03:44.773Z,100522.94
2023-03-30T18:06:12.894Z,100517.72
2023-03-30T18:08:40.639Z,100517.75
2023-03-30T18:11:08.067Z,100512.47
2023-03-30T18:13:36.053Z,100516.91
2023-03-30T18:16:03.477Z,100504.56
2023-03-30T18:18:31.961Z,100516.88
2023-03-30T18:21:05.457Z,100521.31
2023-03-30T18:23:34.437Z,100520.41
2023-03-30T18:26:08.392Z,100515.13
2023-03-30T18:28:40.504Z,100525.72
2023-03-30T18:31:08.852Z,100524.88
2023-03-30T18:33:36.272Z,100526.66
2023-03-30T18:36:05.268Z,100529.28
2023-03-30T18:38:33.535Z,100524.03
2023-03-30T18:41:01.542Z,100524.94
2023-03-30T18:43:29.179Z,100524.09
2023-03-30T18:46:01.472Z,100524.16
2023-03-30T18:48:29.679Z,100524.22
2023-03-30T18:50:57.339Z,100525.22
2023-03-30T18:53:27.964Z,100534.13
2023-03-30T18:55:58.746Z,100529.78
2023-03-30T18:58:29.126Z,100528.13
2023-03-30T19:00:56.987Z,100522.84
2023-03-30T19:03:27.995Z,100529.06
2023-03-30T19:05:55.332Z,100519.47
2023-03-30T19:08:25.408Z,100516.03
2023-03-30T19:10:55.855Z,100513.44
2023-03-30T19:13:24.737Z,100510.88
2023-03-30T19:15:53.227Z,100506.53
2023-03-30T19:18:21.341Z,100504.84
2023-03-30T19:20:50.195Z,100500.47
2023-03-30T19:23:18.234Z,100499.56
2023-03-30T19:25:46.096Z,100497.81
2023-03-30T19:28:14.680Z,100494.31
2023-03-30T19:30:42.646Z,100499.63
2023-03-30T19:33:15.272Z,100502.25
2023-03-30T19:35:44.883Z,100489.94
2023-03-30T19:38:13.501Z,100492.63
2023-03-30T19:40:42.179Z,100490.09
2023-03-30T19:43:10.576Z,100495.41
2023-03-30T19:45:39.049Z,100493.75
2023-03-30T19:48:07.782Z,100487.66
2023-03-30T19:50:35.122Z,100494.75
2023-03-30T19:53:02.262Z,100499.19
2023-03-30T19:55:29.598Z,100498.34
2023-03-30T19:57:56.587Z,100493.94
2023-03-30T20:00:24.623Z,100501.97
2023-03-30T20:02:55.037Z,100502.84
2023-03-30T20:05:24.608Z,100499.41
2023-03-30T20:07:52.187Z,100496.84
2023-03-30T20:10:25.903Z,100496.00
2023-03-30T20:12:53.623Z,100496.06
2023-03-30T20:15:22.921Z,100496.09
2023-03-30T20:17:50.176Z,100489.97
2023-03-30T20:20:22.771Z,100490.00
2023-03-30T20:22:53.406Z,100479.50
2023-03-30T20:25:22.144Z,100483.06
2023-03-30T20:27:49.595Z,100476.06
2023-03-30T20:30:17.114Z,100476.97
2023-03-30T20:32:48.439Z,100463.81
2023-03-30T20:35:24.187Z,100468.25
2023-03-30T20:37:51.508Z,100463.00
2023-03-30T20:40:18.913Z,100463.91
2023-03-30T20:42:48.233Z,100462.19
2023-03-30T20:45:17.754Z,100468.34
2023-03-30T20:47:51.486Z,100463.09
2023-03-30T20:50:18.765Z,100463.09
2023-03-30T20:52:46.503Z,100465.75
2023-03-30T20:55:13.904Z,100459.66
2023-03-30T20:57:41.039Z,100451.72
2023-03-30T21:00:09.617Z,100457.91
2023-03-30T21:02:37.384Z,100449.13
2023-03-30T21:05:05.091Z,100445.66
2023-03-30T21:07:32.176Z,100443.91
2023-03-30T21:09:59.410Z,100447.44
2023-03-30T21:12:26.469Z,100444.84
2023-03-30T21:14:53.997Z,100436.06
2023-03-30T21:17:21.864Z,100436.09
2023-03-30T21:19:48.899Z,100442.25
2023-03-30T21:22:17.984Z,100439.66
2023-03-30T21:24:47.478Z,100438.81
2023-03-30T21:27:14.590Z,100430.88
2023-03-30T21:29:41.648Z,100434.41
2023-03-30T21:32:08.703Z,100438.81
2023-03-30T21:34:35.799Z,100428.34
2023-03-30T21:37:03.699Z,100430.13
2023-03-30T21:39:30.843Z,100425.75
2023-03-30T21:41:58.170Z,100414.34
2023-03-30T21:44:25.657Z,100410.88
2023-03-30T21:46:52.797Z,100408.25
2023-03-30T21:49:19.823Z,100406.50
2023-03-30T21:51:46.984Z,100403.00
2023-03-30T21:54:14.104Z,100404.75
2023-03-30T21:56:41.443Z,100410.03
2023-03-30T21:59:09.713Z,100405.69
2023-03-30T22:01:36.897Z,100403.94
2023-03-30T22:04:06.139Z,100403.97
2023-03-30T22:06:33.476Z,100403.97
2023-03-30T22:09:00.709Z,100398.69
2023-03-30T22:11:27.897Z,100389.06
2023-03-30T22:13:55.725Z,100384.66
2023-03-30T22:16:32.239Z,100383.81
2023-03-30T22:18:59.615Z,100373.31
2023-03-30T22:21:34.627Z,100375.03
2023-03-30T22:24:05.353Z,100370.63
2023-03-30T22:26:33.106Z,100375.03
2023-03-30T22:29:00.598Z,100377.72
2023-03-30T22:31:28.532Z,100382.09
2023-03-30T22:33:56.455Z,100375.97
2023-03-30T22:36:29.942Z,100367.22
2023-03-30T22:38:58.828Z,100365.47
2023-03-30T22:41:26.631Z,100365.47
2023-03-30T22:43:56.663Z,100361.13
2023-03-30T22:46:26.308Z,100344.44
2023-03-30T22:48:55.681Z,100337.44
2023-03-30T22:51:26.154Z,100337.41
2023-03-30T22:53:59.416Z,100332.13
2023-03-30T22:56:30.291Z,100330.34
2023-03-30T22:58:59.162Z,100332.06
2023-03-30T23:01:29.249Z,100328.50
2023-03-30T23:03:59.510Z,100314.41
2023-03-30T23:06:27.410Z,100323.13
2023-03-30T23:08:54.697Z,100317.78
2023-03-30T23:11:21.730Z,100315.16
2023-03-30T23:13:49.397Z,100304.56
2023-03-30T23:16:16.564Z,100309.81
2023-03-30T23:18:43.668Z,100303.59
2023-03-30T23:21:11.479Z,100291.28
2023-03-30T23:23:38.924Z,100276.31
2023-03-30T23:26:10.087Z,100272.78
2023-03-30T23:28:39.892Z,100253.47
2023-03-30T23:31:17.696Z,100258.72
2023-03-30T23:33:45.865Z,100261.34
2023-03-30T23:36:14.149Z,100258.69
2023-03-30T23:38:42.121Z,100256.94
2023-03-30T23:41:12.748Z,100249.91
2023-03-30T23:43:40.521Z,100252.53
2023-03-30T23:46:07.920Z,100262.22
2023-03-30T23:48:35.760Z,100259.59
2023-03-30T23:51:03.039Z,100241.13
2023-03-30T23:53:30.568Z,100235.00
2023-03-30T23:55:58.335Z,100231.50
2023-03-30T23:58:25.949Z,100229.78
